Latest Coastal Weather Observations for Proserpine

IDQ60701

Issued at 1:41 pm EST Sunday 22 January 2017 (issued every 10 minutes, with the page automatically refreshed every 10 minutes)

About coastal observations | Map of coastal stations | Coastal observations for QLD | Marine services | Other Formats
Station Details ID: 033247 Name: PROSERPINE AIRPORT Lat: -20.49 Lon: 148.56 Height: 19.7 m
Data from the previous 72 hours. | See also: Recent months at Proserpine
Date/Time
EST
Temp
°C
Wind Pressure Rain since
9am
mm
Weather Cloud Vis
km
Sea
Height
m
Swell
Dir  Spd
kts
Gust
kts
hPa Trend Height
m
Period
s
Dir
22/01:30pm 31.5 ESE 12 17 1009.9 - 0.0 - - 10 - - - -
22/01:00pm 31.5 ESE 12 17 1010.1 - 0.0 - Partly cloudy 10 - - - -
22/12:30pm 31.6 ESE 10 15 1010.2 - 0.0 - Partly cloudy 10 - - - -
22/12:00pm 31.8 ESE 10 14 1010.3 - 0.0 - Mostly clear 10 - - - -
22/11:30am 32.0 ESE 8 12 1010.5 - 0.0 - Partly cloudy 10 - - - -
22/11:00am 31.1 SE 5 11 1011.0 - 0.0 - Partly cloudy 10 - - - -
22/10:30am 30.6 E 5 8 1011.0 - 0.0 - - 10 - - - -
22/10:00am 31.0 E 3 7 1011.2 - 0.0 - - 10 - - - -
22/09:30am 29.7 N 3 5 1011.2 - 0.0 - - 10 - - - -
22/09:00am 29.3 SSE 3 6 1011.2 - 0.0 - - 10 - - - -
22/08:30am 28.2 SE 4 6 1011.1 - 0.0 - - 10 - - - -
22/08:00am 27.5 SE 1 4 1011.0 - 0.0 - - 10 - - - -
22/07:30am 25.5 CALM 0 0 1010.8 - 0.0 - - 10 - - - -
22/07:00am 23.9 CALM 0 0 1010.6 - 0.0 - - 10 - - - -
22/06:30am 23.0 CALM 0 0 1010.3 - 0.0 - - 10 - - - -
22/06:00am 21.6 CALM 0 0 1009.8 - 0.0 - - 10 - - - -
22/05:30am 21.6 CALM 0 0 1009.2 - 0.0 - - 10 - - - -
22/05:00am 21.6 WSW 1 3 1008.8 - 0.0 - - 10 - - - -
22/04:30am 21.8 SSW 3 4 1008.4 - 0.0 - Partly cloudy 10 - - - -
22/04:00am 21.8 SSW 3 5 1008.3 - 0.0 - - 10 - - - -
22/03:30am 21.7 CALM 0 0 1008.2 - 0.0 - - 10 - - - -
22/03:00am 21.8 CALM 0 0 1008.3 - 0.0 - - 10 - - - -
22/02:30am 22.2 CALM 0 3 1008.5 - 0.0 - - 10 - - - -
22/02:00am 22.2 CALM 0 0 1008.9 - 0.0 - - 10 - - - -
22/01:30am 22.3 NW 1 3 1009.1 - 0.0 - - 10 - - - -
22/01:00am 22.6 CALM 0 4 1009.3 - 0.0 - - 10 - - - -
22/12:30am 22.9 CALM 0 0 1009.5 - 0.0 - - 10 - - - -
22/12:00am 23.4 CALM 0 0 1009.8 - 0.0 - - 10 - - - -
 
Date/Time
EST
Temp
°C
Wind Pressure Rain since
9am
mm
Weather Cloud Vis
km
Sea
Height
m
Swell
Dir  Spd
kts
Gust
kts
hPa Trend Height
m
Period
s
Dir
21/11:30pm 23.5 WSW 3 3 1009.9 - 0.0 - - 10 - - - -
21/11:00pm 24.0 CALM 0 5 1009.9 - 0.0 - - 10 - - - -
21/10:30pm 24.3 CALM 0 0 1010.1 - 0.0 - - 10 - - - -
21/10:00pm 24.6 CALM 0 0 1010.1 - 0.0 - - 10 - - - -
21/09:30pm 25.0 CALM 0 0 1009.6 - 0.0 - - 10 - - - -
21/09:00pm 25.5 CALM 0 0 1009.2 - 0.0 - - 10 - - - -
21/08:30pm 25.6 NW 3 4 1008.6 - 0.0 - - 10 - - - -
21/08:00pm 26.2 NNW 2 6 1008.1 - 0.0 - - 10 - - - -
21/07:30pm 27.3 NE 3 4 1007.6 - 0.0 - - 10 - - - -
21/07:00pm 28.4 N 3 4 1007.3 - 0.0 - - 10 - - - -
21/06:30pm 29.3 N 5 7 1007.0 - 0.0 - - 10 - - - -
21/06:00pm 30.4 N 6 8 1006.4 - 0.0 - - 10 - - - -
21/05:30pm 31.4 N 6 8 1006.2 - 0.0 - - 10 - - - -
21/05:00pm 31.9 NNE 7 10 1005.9 - 0.0 - - 10 - - - -
21/04:30pm 32.5 NNE 7 9 1005.8 - 0.0 - - 10 - - - -
21/04:00pm 33.1 ENE 9 13 1005.8 - 0.0 - - 10 - - - -
21/03:30pm 33.0 E 9 12 1006.0 - 0.0 - - 10 - - - -
21/03:00pm 33.4 ESE 9 13 1006.2 - 0.0 - - 10 - - - -
21/02:30pm 33.5 E 7 13 1006.5 - 0.0 - - 10 - - - -
21/02:00pm 33.4 NE 5 7 1006.9 - 0.0 - - 10 - - - -
21/01:30pm 33.3 NNE 6 9 1007.3 - 0.0 - - 10 - - - -
21/01:00pm 32.9 NE 6 11 1007.5 - 0.0 - - 10 - - - -
21/12:30pm 32.5 NNE 7 11 1007.7 - 0.0 - - 10 - - - -
21/12:00pm 32.4 NNE 6 11 1007.9 - 0.0 - Mostly clear 10 - - - -
21/11:30am 31.6 NNE 6 9 1008.5 - 0.0 - - 10 - - - -
21/11:00am 30.2 N 5 9 1009.0 - 0.0 - Partly cloudy 10 - - - -
21/10:30am 30.4 N 6 9 1009.3 - 0.0 - Partly cloudy 10 - - - -
21/10:00am 29.8 N 7 10 1009.6 - 0.0 - - 10 - - - -
21/09:30am 28.9 NW 5 7 1009.8 - 0.0 - - 10 - - - -
21/09:00am 28.6 N 2 5 1009.9 - 0.0 - - 10 - - - -
21/08:30am 27.7 CALM 0 2 1009.9 - 0.0 - - 10 - - - -
21/08:00am 26.5 SSW 4 5 1009.8 - 0.0 - - 10 - - - -
21/07:30am 24.8 SW 3 4 1009.6 - 0.0 - - 10 - - - -
21/07:00am 23.6 SW 2 4 1009.6 - 0.0 - - 10 - - - -
21/06:30am 22.5 CALM 0 0 1009.4 - 0.0 - - 10 - - - -
21/06:00am 21.6 CALM 0 0 1009.2 - 0.0 - - 10 - - - -
21/05:30am 21.7 CALM 0 0 1008.7 - 0.0 - - 10 - - - -
21/05:00am 21.8 SSW 3 4 1008.4 - 0.0 - - 10 - - - -
21/04:30am 22.0 WNW 3 3 1008.2 - 0.0 - - 10 - - - -
21/04:00am 22.1 WNW 3 4 1008.0 - 0.0 - - 10 - - - -
21/03:30am 22.2 CALM 0 0 1007.8 - 0.0 - - 10 - - - -
21/03:00am 22.3 CALM 0 0 1007.6 - 0.0 - - 10 - - - -
21/02:30am 22.7 CALM 0 0 1007.8 - 0.0 - - 10 - - - -
21/02:00am 22.7 CALM 0 0 1007.8 - 0.0 - - 10 - - - -
21/01:30am 22.8 CALM 0 0 1008.1 - 0.0 - - 10 - - - -
21/01:00am 22.8 WSW 4 5 1008.3 - 0.0 - - 10 - - - -
21/12:30am 23.3 SW 3 5 1008.6 - 0.0 - - 10 - - - -
21/12:00am 23.8 S 2 4 1008.7 - 0.0 - - 10 - - - -
 
Date/Time
EST
Temp
°C
Wind Pressure Rain since
9am
mm
Weather Cloud Vis
km
Sea
Height
m
Swell
Dir  Spd
kts
Gust
kts
hPa Trend Height
m
Period
s
Dir
20/11:30pm 24.3 CALM 0 0 1009.1 - 0.0 - - 10 - - - -
20/11:00pm 24.4 W 1 3 1009.2 - 0.0 - - 10 - - - -
20/10:30pm 24.2 SW 5 6 1009.4 - 0.0 - - 10 - - - -
20/10:00pm 25.0 CALM 0 0 1009.2 - 0.0 - - 10 - - - -
20/09:30pm 25.3 CALM 0 0 1008.9 - 0.0 - - 10 - - - -
20/09:00pm 25.4 E 2 4 1008.7 - 0.0 - - 10 - - - -
20/08:30pm 26.3 CALM 0 3 1008.1 - 0.0 - Partly cloudy 10 - - - -
20/08:00pm 26.5 CALM 0 0 1007.9 - 0.0 - Partly cloudy 10 - - - -
20/07:30pm 26.5 NNE 1 3 1007.5 - 0.0 - - 10 - - - -
20/07:00pm 27.0 NNE 5 7 1007.2 - 0.0 - - 10 - - - -
20/06:30pm 27.9 NNE 7 10 1007.0 - 0.0 - Partly cloudy 10 - - - -
20/06:00pm 28.9 NNE 6 10 1006.6 - 0.0 - Cloudy 10 - - - -
20/05:30pm 29.5 E 7 10 1006.2 - 0.0 - Cloudy 10 - - - -
20/05:00pm 30.5 E 9 12 1005.9 - 0.0 - Partly cloudy 10 - - - -
20/04:30pm 31.0 E 8 10 1005.8 - 0.0 - - 10 - - - -
20/04:00pm 31.4 ESE 9 12 1005.9 - 0.0 - - 10 - - - -
20/03:30pm 32.1 E 9 13 1006.1 - 0.0 - - 10 - - - -
20/03:00pm 31.8 E 8 13 1006.4 - 0.0 - - 10 - - - -
20/02:30pm 32.0 ESE 8 12 1006.7 - 0.0 - Partly cloudy 10 - - - -
20/02:00pm 32.4 ENE 6 10 1007.1 - 0.0 - Partly cloudy 10 - - - -
20/01:30pm 32.2 NE 3 6 1007.7 - 0.0 - Partly cloudy 10 - - - -
20/01:00pm 31.9 NNE 3 6 1008.3 - 0.0 - Partly cloudy 10 - - - -
20/12:30pm 31.4 N 5 9 1008.8 - 0.0 - - 10 - - - -
20/12:00pm 30.9 ENE 5 7 1009.0 - 0.0 - Mostly clear 10 - - - -
20/11:30am 31.2 NE 3 6 1009.2 - 0.0 - Partly cloudy 10 - - - -
20/11:00am 30.1 NNE 3 6 1009.5 - 0.0 - Partly cloudy 10 - - - -
20/10:30am 30.3 SW 2 6 1009.6 - 0.0 - Partly cloudy 10 - - - -
20/10:00am 29.4 WSW 4 9 1010.0 - 0.0 - Partly cloudy 10 - - - -
20/09:30am 29.5 ENE 4 7 1010.2 - 0.0 - Partly cloudy 10 - - - -
20/09:00am 28.4 W 3 7 1010.2 - 0.0 - - 10 - - - -
20/08:30am 27.3 SW 4 6 1010.0 - 0.0 - - 10 - - - -
20/08:00am 26.0 SSW 4 8 1009.9 - 0.0 - - 10 - - - -
20/07:30am 24.7 SW 2 5 1009.8 - 0.0 - - 10 - - - -
20/07:00am 23.8 CALM 0 0 1009.6 - 0.0 - - 10 - - - -
20/06:30am 22.1 CALM 0 0 1009.3 - 0.0 - - 10 - - - -
20/06:20am 21.7 CALM 0 0 1009.2 - 0.0 - - 10 - - - -
20/06:00am 20.9 CALM 0 0 1009.0 - 0.0 - - 4 - - - -
20/05:31am 20.8 CALM 0 0 1008.6 - 0.0 - - 10 - - - -
20/05:30am 20.8 CALM 0 0 1008.6 - 0.0 - - 10 - - - -
20/05:08am 20.9 CALM 0 0 1008.2 - 0.0 - - 5 - - - -
20/05:00am 21.2 N 1 3 1008.0 - 0.0 - - 10 - - - -
20/04:30am 21.4 CALM 0 0 1007.9 - 0.0 - - 10 - - - -
20/04:00am 21.9 CALM 0 0 1007.8 - 0.0 - - 10 - - - -
20/03:30am 22.3 CALM 0 0 1008.0 - 0.0 - - 10 - - - -
20/03:00am 22.3 SW 2 5 1008.0 - 0.0 - - 10 - - - -
20/02:30am 22.5 SSW 6 6 1008.2 - 0.0 - - 10 - - - -
20/02:00am 22.9 SSW 3 4 1008.3 - 0.0 - - 10 - - - -
20/01:30am 23.1 SSW 3 4 1008.5 - 0.0 - - 10 - - - -
20/01:00am 23.5 CALM 0 0 1008.7 - 0.0 - - 10 - - - -
20/12:30am 23.6 CALM 0 0 1009.1 - 0.0 - - 10 - - - -
20/12:00am 23.9 CALM 0 0 1009.2 - 0.0 - Partly cloudy 10 - - - -
 
Date/Time
EST
Temp
°C
Wind Pressure Rain since
9am
mm
Weather Cloud Vis
km
Sea
Height
m
Swell
Dir  Spd
kts
Gust
kts
hPa Trend Height
m
Period
s
Dir
19/11:30pm 23.9 CALM 0 0 1009.4 - 0.0 - - 10 - - - -
19/11:00pm 23.9 CALM 0 0 1009.4 - 0.0 - - 10 - - - -
19/10:30pm 24.6 CALM 0 0 1009.4 - 0.0 - - 10 - - - -
19/10:00pm 24.7 WNW 2 3 1009.2 - 0.0 - - 10 - - - -
19/09:30pm 25.2 NW 3 5 1008.9 - 0.0 - - 10 - - - -
19/09:00pm 25.2 NW 4 5 1008.5 - 0.0 - - 10 - - - -
19/08:30pm 25.9 NNW 3 4 1008.3 - 0.0 - - 10 - - - -
19/08:00pm 26.3 N 4 5 1007.8 - 0.0 - - 10 - - - -
19/07:30pm 26.9 NNW 5 7 1007.6 - 0.0 - - 10 - - - -
19/07:00pm 27.8 N 7 11 1007.2 - 0.0 - - 10 - - - -
19/06:30pm 29.5 N 5 6 1006.8 - 0.0 - - 10 - - - -
19/06:00pm 31.5 ENE 5 7 1006.6 - 0.0 - - 10 - - - -
19/05:30pm 32.7 ESE 5 7 1006.3 - 0.0 - - 10 - - - -
19/05:00pm 33.1 E 5 7 1006.2 - 0.0 - - 10 - - - -
19/04:30pm 33.4 E 6 9 1006.2 - 0.0 - - 10 - - - -
19/04:00pm 33.6 ENE 6 9 1006.2 - 0.0 - - 10 - - - -
19/03:30pm 33.2 E 7 9 1006.6 - 0.0 - - 10 - - - -
19/03:00pm 33.5 ENE 6 9 1006.8 - 0.0 - - 10 - - - -
19/02:30pm 33.2 E 8 11 1007.2 - 0.0 - - 10 - - - -
19/02:00pm 33.4 ENE 6 11 1007.7 - 0.0 - - 10 - - - -

Other Formats:

Comma delimited format used in spreadsheet applications
http://www.bom.gov.au/fwo/IDQ60701/IDQ60701.94365.axf

JavaScript Object Notation format (JSON) in row-major order
http://www.bom.gov.au/fwo/IDQ60701/IDQ60701.94365.json